createdAt,value
2023-02-13T00:01:04.412Z,5.71
2023-02-13T00:03:31.362Z,5.68
2023-02-13T00:05:58.147Z,5.65
2023-02-13T00:08:24.810Z,5.65
2023-02-13T00:10:51.491Z,5.64
2023-02-13T00:13:18.199Z,5.69
2023-02-13T00:15:44.908Z,5.73
2023-02-13T00:18:11.573Z,5.76
2023-02-13T00:20:38.200Z,5.74
2023-02-13T00:23:04.805Z,5.70
2023-02-13T00:25:31.593Z,5.71
2023-02-13T00:28:01.196Z,5.74
2023-02-13T00:30:27.828Z,5.71
2023-02-13T00:32:54.436Z,5.75
2023-02-13T00:35:21.055Z,5.82
2023-02-13T00:37:47.751Z,5.66
2023-02-13T00:40:14.413Z,5.59
2023-02-13T00:42:41.015Z,5.58
2023-02-13T00:45:08.382Z,5.58
2023-02-13T00:47:34.982Z,5.61
2023-02-13T00:50:01.691Z,5.63
2023-02-13T00:52:28.334Z,5.58
2023-02-13T00:54:55.160Z,5.61
2023-02-13T00:57:21.936Z,5.68
2023-02-13T00:59:50.059Z,5.65
2023-02-13T01:02:17.433Z,5.59
2023-02-13T01:04:44.047Z,5.54
2023-02-13T01:07:10.654Z,5.58
2023-02-13T01:09:37.376Z,5.56
2023-02-13T01:12:04.049Z,5.51
2023-02-13T01:14:30.825Z,5.51
2023-02-13T01:16:58.625Z,5.69
2023-02-13T01:19:25.485Z,5.53
2023-02-13T01:21:54.451Z,5.48
2023-02-13T01:24:21.054Z,5.49
2023-02-13T01:26:47.675Z,5.47
2023-02-13T01:29:14.701Z,5.43
2023-02-13T01:31:41.428Z,5.46
2023-02-13T01:34:08.346Z,5.41
2023-02-13T01:36:35.058Z,5.36
2023-02-13T01:39:04.706Z,5.35
2023-02-13T01:41:31.434Z,5.32
2023-02-13T01:44:01.874Z,5.33
2023-02-13T01:46:33.716Z,5.29
2023-02-13T01:49:11.476Z,5.34
2023-02-13T01:51:38.629Z,5.31
2023-02-13T01:54:11.768Z,5.33
2023-02-13T01:56:49.082Z,5.30
2023-02-13T01:59:20.045Z,5.41
2023-02-13T02:01:47.660Z,5.30
2023-02-13T02:04:18.329Z,5.37
2023-02-13T02:06:51.846Z,5.25
2023-02-13T02:09:21.370Z,5.16
2023-02-13T02:12:25.468Z,5.26
2023-02-13T02:14:53.920Z,5.27
2023-02-13T02:17:22.737Z,5.19
2023-02-13T02:20:02.395Z,5.17
2023-02-13T02:23:08.405Z,5.18
2023-02-13T02:26:08.482Z,5.19
2023-02-13T02:29:01.651Z,5.11
2023-02-13T02:31:52.074Z,5.09
2023-02-13T02:34:54.475Z,5.07
2023-02-13T02:37:43.940Z,5.09
2023-02-13T02:40:33.214Z,5.02
2023-02-13T02:43:13.097Z,5.04
2023-02-13T02:45:44.543Z,4.99
2023-02-13T02:48:40.682Z,4.97
2023-02-13T02:51:21.861Z,4.95
2023-02-13T02:54:36.103Z,4.94
2023-02-13T02:57:18.090Z,4.89
2023-02-13T03:00:05.411Z,4.86
2023-02-13T03:02:51.177Z,4.84
2023-02-13T03:05:40.553Z,4.86
2023-02-13T03:08:07.263Z,4.81
2023-02-13T03:10:54.072Z,4.78
2023-02-13T03:13:42.826Z,4.80
2023-02-13T03:16:34.565Z,4.80
2023-02-13T03:19:19.971Z,4.82
2023-02-13T03:22:13.496Z,4.79
2023-02-13T03:25:09.021Z,4.79
2023-02-13T03:28:04.879Z,4.77
2023-02-13T03:30:52.941Z,4.80
2023-02-13T03:33:43.688Z,4.84
2023-02-13T03:36:41.156Z,4.84
2023-02-13T03:39:35.390Z,4.83
2023-02-13T03:42:05.713Z,4.83
2023-02-13T03:44:46.781Z,4.86
2023-02-13T03:47:14.939Z,4.86
2023-02-13T03:50:03.831Z,4.84
2023-02-13T03:52:45.362Z,4.86
2023-02-13T03:55:42.896Z,4.91
2023-02-13T03:58:32.215Z,4.86
2023-02-13T04:01:01.269Z,4.90
2023-02-13T04:03:43.163Z,4.82
2023-02-13T04:06:15.322Z,4.76
2023-02-13T04:08:42.179Z,4.72
2023-02-13T04:11:18.702Z,4.74
2023-02-13T04:13:58.363Z,4.74
2023-02-13T04:16:32.602Z,4.74
2023-02-13T04:18:59.144Z,4.80
2023-02-13T04:21:25.729Z,4.74
2023-02-13T04:23:52.346Z,4.73
2023-02-13T04:26:21.503Z,4.71
2023-02-13T04:28:48.207Z,4.66
2023-02-13T04:31:15.283Z,4.74
2023-02-13T04:33:42.022Z,4.66
2023-02-13T04:36:08.888Z,4.64
2023-02-13T04:38:35.493Z,4.62
2023-02-13T04:41:02.134Z,4.66
2023-02-13T04:43:28.777Z,4.71
2023-02-13T04:45:55.759Z,4.64
2023-02-13T04:48:22.403Z,4.69
2023-02-13T04:50:49.063Z,4.68
2023-02-13T04:53:15.679Z,4.70
2023-02-13T04:55:42.310Z,4.74
2023-02-13T04:58:08.933Z,4.80
2023-02-13T05:00:35.723Z,4.75
2023-02-13T05:03:06.998Z,4.78
2023-02-13T05:05:34.568Z,4.74
2023-02-13T05:08:01.316Z,4.75
2023-02-13T05:10:28.268Z,4.69
2023-02-13T05:12:54.922Z,4.65
2023-02-13T05:15:23.523Z,4.61
2023-02-13T05:17:50.402Z,4.63
2023-02-13T05:20:17.180Z,4.60
2023-02-13T05:23:06.496Z,4.63
2023-02-13T05:25:33.872Z,4.68
2023-02-13T05:28:00.531Z,4.61
2023-02-13T05:30:27.579Z,4.57
2023-02-13T05:32:55.116Z,4.55
2023-02-13T05:35:22.493Z,4.51
2023-02-13T05:37:49.187Z,4.48
2023-02-13T05:40:16.047Z,4.54
2023-02-13T05:42:42.706Z,4.52
2023-02-13T05:45:10.211Z,4.52
2023-02-13T05:47:36.837Z,4.61
2023-02-13T05:50:03.677Z,4.53
2023-02-13T05:52:30.281Z,4.52
2023-02-13T05:54:56.892Z,4.60
2023-02-13T05:57:23.550Z,4.50
2023-02-13T05:59:50.181Z,4.60
2023-02-13T06:02:16.815Z,4.53
2023-02-13T06:04:43.526Z,4.56
2023-02-13T06:07:10.158Z,4.50
2023-02-13T06:09:36.768Z,4.49
2023-02-13T06:12:03.419Z,4.46
2023-02-13T06:14:30.048Z,4.44
2023-02-13T06:16:56.675Z,4.46
2023-02-13T06:19:23.532Z,4.45
2023-02-13T06:21:50.156Z,4.45
2023-02-13T06:24:16.766Z,4.42
2023-02-13T06:26:43.410Z,4.37
2023-02-13T06:29:11.207Z,4.34
2023-02-13T06:31:37.965Z,4.35
2023-02-13T06:34:04.665Z,4.34
2023-02-13T06:36:31.293Z,4.31
2023-02-13T06:38:57.867Z,4.34
2023-02-13T06:41:24.480Z,4.30
2023-02-13T06:43:51.081Z,4.27
2023-02-13T06:46:17.845Z,4.24
2023-02-13T06:48:44.503Z,4.27
2023-02-13T06:51:11.106Z,4.31
2023-02-13T06:53:39.697Z,4.27
2023-02-13T06:56:07.085Z,4.24
2023-02-13T06:58:34.431Z,4.23
2023-02-13T07:01:01.207Z,4.24
2023-02-13T07:03:27.936Z,4.26
2023-02-13T07:05:54.694Z,4.23
2023-02-13T07:08:21.389Z,4.38
2023-02-13T07:10:48.132Z,4.36
2023-02-13T07:13:14.884Z,4.48
2023-02-13T07:15:42.097Z,4.49
2023-02-13T07:18:09.121Z,4.44
2023-02-13T07:20:36.044Z,4.49
2023-02-13T07:23:04.861Z,4.55
2023-02-13T07:25:31.969Z,4.51
2023-02-13T07:28:03.723Z,4.51
2023-02-13T07:30:31.790Z,4.56
2023-02-13T07:33:03.170Z,4.58
2023-02-13T07:35:30.018Z,4.67
2023-02-13T07:37:56.787Z,4.75
2023-02-13T07:40:23.539Z,4.65
2023-02-13T07:42:50.236Z,4.58
2023-02-13T07:45:17.066Z,4.62
2023-02-13T07:47:43.716Z,4.66
2023-02-13T07:50:10.788Z,4.62
2023-02-13T07:52:38.030Z,4.55
2023-02-13T07:55:05.536Z,4.58
2023-02-13T07:57:32.340Z,4.53
2023-02-13T07:59:58.966Z,4.55
2023-02-13T08:02:25.596Z,4.58
2023-02-13T08:04:52.246Z,4.59
2023-02-13T08:07:19.871Z,4.59
2023-02-13T08:10:05.783Z,4.58
2023-02-13T08:12:34.169Z,4.59
2023-02-13T08:15:00.774Z,4.61
2023-02-13T08:17:27.400Z,4.66
2023-02-13T08:19:55.038Z,4.66
2023-02-13T08:22:21.667Z,4.66
2023-02-13T08:24:48.261Z,4.66
2023-02-13T08:27:15.723Z,4.68
2023-02-13T08:29:42.363Z,4.70
2023-02-13T08:32:09.488Z,4.71
2023-02-13T08:34:36.252Z,4.71
2023-02-13T08:37:03.653Z,4.73
2023-02-13T08:39:30.282Z,4.73
2023-02-13T08:41:56.975Z,4.76
2023-02-13T08:44:23.566Z,4.77
2023-02-13T08:46:50.208Z,4.78
2023-02-13T08:49:17.063Z,4.80
2023-02-13T08:51:43.784Z,4.82
2023-02-13T08:54:10.428Z,4.84
2023-02-13T08:56:37.135Z,4.85
2023-02-13T08:59:03.846Z,4.86
2023-02-13T09:01:30.491Z,4.88
2023-02-13T09:03:57.139Z,4.89
2023-02-13T09:06:26.247Z,4.91
2023-02-13T09:08:53.382Z,4.94
2023-02-13T09:11:23.283Z,4.95
2023-02-13T09:13:52.954Z,4.98
2023-02-13T09:16:19.928Z,5.00
2023-02-13T09:18:53.077Z,5.02
2023-02-13T09:21:22.784Z,5.04
2023-02-13T09:23:50.311Z,5.08
2023-02-13T09:26:19.626Z,5.07
2023-02-13T09:28:47.121Z,5.11
2023-02-13T09:31:16.692Z,5.14
2023-02-13T09:33:44.605Z,5.16
2023-02-13T09:36:14.770Z,5.21
2023-02-13T09:38:44.809Z,5.29
2023-02-13T09:41:18.598Z,5.32
2023-02-13T09:43:49.893Z,5.30
2023-02-13T09:46:38.792Z,5.33
2023-02-13T09:49:08.876Z,5.39
2023-02-13T09:51:35.855Z,5.41
2023-02-13T09:54:05.028Z,5.48
2023-02-13T09:56:37.860Z,5.55
2023-02-13T09:59:35.397Z,5.58
2023-02-13T10:02:14.624Z,5.52
2023-02-13T10:04:48.753Z,5.67
2023-02-13T10:07:31.713Z,5.64
2023-02-13T10:10:03.143Z,5.69
2023-02-13T10:13:03.824Z,5.74
2023-02-13T10:15:45.067Z,5.85
2023-02-13T10:18:16.410Z,5.79
2023-02-13T10:20:52.861Z,5.88
2023-02-13T10:23:33.423Z,5.93
2023-02-13T10:26:07.350Z,5.96
2023-02-13T10:29:25.492Z,6.13
2023-02-13T10:31:55.882Z,6.11
2023-02-13T10:34:25.767Z,6.02
2023-02-13T10:36:52.592Z,6.09
2023-02-13T10:39:25.504Z,6.01
2023-02-13T10:42:05.125Z,5.93
2023-02-13T10:44:54.712Z,5.96
2023-02-13T10:47:41.471Z,6.01
2023-02-13T10:50:23.642Z,6.07
2023-02-13T10:52:54.902Z,6.04
2023-02-13T10:55:31.459Z,5.98
2023-02-13T10:58:20.468Z,5.98
2023-02-13T11:00:56.805Z,6.04
2023-02-13T11:03:25.937Z,5.95
2023-02-13T11:05:53.867Z,5.98
2023-02-13T11:08:35.721Z,5.97
2023-02-13T11:11:02.359Z,6.07
2023-02-13T11:13:30.546Z,6.00
2023-02-13T11:16:00.968Z,6.09
2023-02-13T11:18:30.131Z,6.09
2023-02-13T11:21:04.162Z,6.19
2023-02-13T11:23:30.690Z,6.02
2023-02-13T11:26:03.488Z,6.14
2023-02-13T11:28:32.687Z,6.09
2023-02-13T11:31:13.669Z,6.01
2023-02-13T11:33:40.648Z,6.16
2023-02-13T11:36:09.791Z,6.10
2023-02-13T11:38:36.686Z,6.08
2023-02-13T11:41:13.727Z,6.14
2023-02-13T11:44:06.743Z,6.17
2023-02-13T11:46:53.319Z,6.23
2023-02-13T11:49:22.416Z,6.17
2023-02-13T11:51:51.100Z,6.27
2023-02-13T11:54:24.681Z,6.28
2023-02-13T11:57:07.337Z,6.33
2023-02-13T11:59:41.325Z,6.17
2023-02-13T12:02:18.920Z,6.13
2023-02-13T12:04:46.860Z,6.08
2023-02-13T12:07:18.769Z,6.04
2023-02-13T12:09:48.996Z,6.11
2023-02-13T12:12:26.082Z,6.20
2023-02-13T12:14:53.026Z,6.08
2023-02-13T12:17:31.349Z,6.07
2023-02-13T12:19:58.782Z,6.06
2023-02-13T12:22:36.942Z,6.16
2023-02-13T12:25:36.557Z,6.21
2023-02-13T12:28:13.391Z,6.21
2023-02-13T12:30:46.188Z,6.13
2023-02-13T12:33:31.578Z,6.09
2023-02-13T12:36:17.318Z,6.19
2023-02-13T12:38:47.195Z,6.14
2023-02-13T12:41:20.523Z,6.26
2023-02-13T12:44:09.026Z,6.13
2023-02-13T12:46:58.756Z,6.08
2023-02-13T12:49:31.406Z,6.04
2023-02-13T12:52:11.441Z,6.04
2023-02-13T12:54:48.393Z,6.03
2023-02-13T12:57:21.604Z,5.97
2023-02-13T13:00:13.287Z,6.05
2023-02-13T13:03:17.721Z,6.20
2023-02-13T13:06:19.745Z,6.10
2023-02-13T13:08:49.365Z,6.21
2023-02-13T13:11:34.526Z,6.23
2023-02-13T13:14:03.961Z,6.10
2023-02-13T13:16:45.529Z,6.26
2023-02-13T13:19:38.173Z,6.06
2023-02-13T13:22:19.561Z,5.99
2023-02-13T13:24:58.117Z,6.02
2023-02-13T13:27:32.118Z,6.03
2023-02-13T13:30:13.709Z,6.01
2023-02-13T13:32:41.812Z,6.11
2023-02-13T13:35:20.285Z,6.08
2023-02-13T13:38:06.638Z,6.10
2023-02-13T13:40:53.335Z,6.03
2023-02-13T13:43:33.793Z,5.98
2023-02-13T13:46:32.733Z,5.92
2023-02-13T13:48:59.490Z,5.77
2023-02-13T13:51:26.434Z,5.94
2023-02-13T13:54:05.288Z,6.00
2023-02-13T13:56:53.727Z,5.98
2023-02-13T13:59:51.774Z,6.02
2023-02-13T14:02:18.679Z,6.03
2023-02-13T14:05:16.132Z,6.06
2023-02-13T14:07:43.320Z,6.02
2023-02-13T14:10:18.781Z,6.03
2023-02-13T14:12:50.357Z,6.05
2023-02-13T14:15:44.899Z,6.00
2023-02-13T14:18:14.456Z,6.13
2023-02-13T14:20:51.620Z,5.96
2023-02-13T14:23:37.331Z,5.99
2023-02-13T14:26:11.255Z,6.04
2023-02-13T14:28:38.286Z,6.02
2023-02-13T14:31:22.526Z,5.98
2023-02-13T14:34:04.461Z,5.95
2023-02-13T14:36:52.710Z,6.08
2023-02-13T14:39:28.199Z,6.07
2023-02-13T14:41:54.728Z,6.04
2023-02-13T14:44:32.042Z,5.99
2023-02-13T14:47:00.532Z,6.02
2023-02-13T14:49:29.953Z,6.00
2023-02-13T14:52:02.743Z,6.09
2023-02-13T14:54:36.492Z,6.07
2023-02-13T14:57:17.485Z,6.02
2023-02-13T14:59:47.769Z,6.04
2023-02-13T15:02:30.362Z,6.10
2023-02-13T15:05:00.191Z,6.11
2023-02-13T15:07:29.796Z,5.90
2023-02-13T15:10:01.154Z,6.07
2023-02-13T15:12:29.300Z,5.91
2023-02-13T15:14:56.003Z,5.83
2023-02-13T15:17:25.646Z,5.97
2023-02-13T15:19:55.560Z,5.95
2023-02-13T15:22:30.750Z,5.77
2023-02-13T15:24:58.498Z,5.83
2023-02-13T15:27:31.063Z,5.81
2023-02-13T15:30:04.641Z,5.85
2023-02-13T15:32:36.987Z,5.83
2023-02-13T15:35:33.833Z,5.68
2023-02-13T15:38:28.916Z,5.68
2023-02-13T15:40:59.776Z,5.63
2023-02-13T15:43:35.430Z,5.59
2023-02-13T15:46:06.790Z,5.58
2023-02-13T15:48:34.882Z,5.63
2023-02-13T15:51:02.587Z,5.61
2023-02-13T15:53:30.067Z,5.67
2023-02-13T15:56:03.267Z,5.60
2023-02-13T15:58:33.151Z,5.58
2023-02-13T16:01:04.821Z,5.53
2023-02-13T16:03:33.491Z,5.53
2023-02-13T16:06:00.442Z,5.49
2023-02-13T16:08:35.977Z,5.47
2023-02-13T16:11:11.109Z,5.35
2023-02-13T16:13:37.780Z,5.39
2023-02-13T16:16:09.122Z,5.42
2023-02-13T16:18:36.030Z,5.35
2023-02-13T16:21:03.811Z,5.42
2023-02-13T16:23:30.968Z,5.20
2023-02-13T16:26:04.310Z,5.21
2023-02-13T16:28:32.865Z,5.27
2023-02-13T16:31:02.053Z,5.26
2023-02-13T16:33:33.449Z,5.29
2023-02-13T16:36:17.609Z,5.25
2023-02-13T16:38:45.263Z,5.19
2023-02-13T16:41:17.877Z,5.16
2023-02-13T16:43:45.500Z,5.22
2023-02-13T16:46:15.047Z,5.30
2023-02-13T16:48:42.879Z,5.13
2023-02-13T16:51:09.731Z,5.17
2023-02-13T16:53:36.868Z,5.18
2023-02-13T16:56:06.953Z,5.12
2023-02-13T16:58:33.718Z,5.07
2023-02-13T17:01:03.858Z,5.09
2023-02-13T17:03:31.938Z,5.09
2023-02-13T17:06:02.389Z,5.09
2023-02-13T17:08:30.859Z,5.12
2023-02-13T17:11:06.654Z,5.19
2023-02-13T17:13:33.784Z,5.15
2023-02-13T17:16:00.445Z,5.27
2023-02-13T17:18:27.614Z,5.21
2023-02-13T17:20:54.670Z,5.11
2023-02-13T17:23:23.993Z,5.05
2023-02-13T17:25:52.576Z,5.02
2023-02-13T17:28:21.795Z,5.03
2023-02-13T17:30:50.450Z,5.08
2023-02-13T17:33:21.219Z,5.07
2023-02-13T17:35:48.157Z,4.99
2023-02-13T17:38:15.069Z,5.10
2023-02-13T17:40:42.883Z,5.08
2023-02-13T17:43:11.596Z,4.93
2023-02-13T17:45:38.791Z,5.06
2023-02-13T17:48:05.600Z,4.95
2023-02-13T17:50:33.030Z,4.92
2023-02-13T17:53:03.626Z,4.89
2023-02-13T17:55:31.818Z,4.83
2023-02-13T17:58:00.508Z,4.95
2023-02-13T18:00:30.240Z,4.83
2023-02-13T18:02:56.924Z,4.89
2023-02-13T18:05:23.734Z,4.87
2023-02-13T18:07:50.584Z,4.82
2023-02-13T18:10:25.293Z,4.94
2023-02-13T18:12:53.030Z,5.06
2023-02-13T18:15:19.981Z,4.84
2023-02-13T18:17:47.034Z,4.81
2023-02-13T18:20:20.584Z,4.83
2023-02-13T18:22:50.462Z,4.78
2023-02-13T18:25:19.589Z,4.91
2023-02-13T18:27:46.487Z,4.86
2023-02-13T18:30:16.493Z,4.74
2023-02-13T18:32:43.163Z,4.80
2023-02-13T18:35:10.151Z,4.86
2023-02-13T18:37:39.149Z,4.78
2023-02-13T18:40:07.915Z,4.71
2023-02-13T18:42:35.977Z,4.71
2023-02-13T18:45:03.327Z,4.64
2023-02-13T18:47:29.976Z,4.57
2023-02-13T18:49:56.708Z,4.65
2023-02-13T18:52:23.384Z,4.64
2023-02-13T18:54:50.219Z,4.58
2023-02-13T18:57:16.847Z,4.67
2023-02-13T18:59:43.513Z,4.65
2023-02-13T19:02:10.275Z,4.75
2023-02-13T19:04:38.302Z,4.70
2023-02-13T19:07:04.978Z,4.83
2023-02-13T19:09:31.651Z,4.64
2023-02-13T19:11:58.330Z,4.59
2023-02-13T19:14:26.729Z,4.55
2023-02-13T19:16:53.575Z,4.70
2023-02-13T19:19:20.209Z,4.69
2023-02-13T19:21:46.801Z,4.66
2023-02-13T19:24:15.524Z,4.65
2023-02-13T19:26:42.223Z,4.67
2023-02-13T19:29:08.936Z,4.68
2023-02-13T19:31:35.713Z,4.67
2023-02-13T19:34:02.493Z,4.65
2023-02-13T19:36:30.249Z,4.76
2023-02-13T19:38:59.846Z,4.64
2023-02-13T19:41:27.078Z,4.43
2023-02-13T19:43:53.804Z,4.40
2023-02-13T19:46:30.977Z,4.52
2023-02-13T19:48:57.804Z,4.47
2023-02-13T19:51:29.829Z,4.58
2023-02-13T19:53:58.962Z,4.50
2023-02-13T19:56:27.255Z,4.39
2023-02-13T19:58:54.642Z,4.39
2023-02-13T20:01:23.621Z,4.42
2023-02-13T20:03:50.673Z,4.41
2023-02-13T20:06:24.096Z,4.53
2023-02-13T20:08:52.467Z,4.44
2023-02-13T20:11:20.688Z,4.39
2023-02-13T20:13:47.790Z,4.36
2023-02-13T20:16:16.574Z,4.44
2023-02-13T20:18:43.557Z,4.41
2023-02-13T20:21:12.562Z,4.47
2023-02-13T20:23:39.314Z,4.40
2023-02-13T20:26:13.989Z,4.37
2023-02-13T20:28:42.260Z,4.43
2023-02-13T20:31:10.996Z,4.34
2023-02-13T20:33:41.079Z,4.40
2023-02-13T20:36:12.599Z,4.32
2023-02-13T20:38:39.295Z,4.26
2023-02-13T20:41:13.593Z,4.32
2023-02-13T20:43:41.342Z,4.20
2023-02-13T20:46:09.712Z,4.33
2023-02-13T20:48:37.555Z,4.21
2023-02-13T20:51:06.696Z,4.22
2023-02-13T20:53:33.720Z,4.22
2023-02-13T20:56:12.197Z,4.21
2023-02-13T20:58:39.999Z,4.25
2023-02-13T21:01:19.333Z,4.24
2023-02-13T21:03:53.745Z,4.16
2023-02-13T21:06:23.524Z,4.12
2023-02-13T21:08:50.639Z,4.10
2023-02-13T21:11:17.872Z,4.10
2023-02-13T21:13:44.798Z,4.10
2023-02-13T21:16:13.593Z,4.10
2023-02-13T21:18:40.884Z,4.11
2023-02-13T21:21:08.596Z,4.10
2023-02-13T21:23:35.283Z,4.08
2023-02-13T21:26:08.841Z,4.11
2023-02-13T21:28:35.939Z,4.09
2023-02-13T21:31:10.412Z,4.09
2023-02-13T21:33:37.786Z,4.09
2023-02-13T21:36:07.440Z,4.18
2023-02-13T21:38:35.570Z,4.15
2023-02-13T21:41:10.845Z,4.34
2023-02-13T21:43:40.439Z,4.18
2023-02-13T21:46:12.064Z,4.35
2023-02-13T21:48:40.054Z,4.12
2023-02-13T21:51:17.845Z,4.07
2023-02-13T21:53:45.343Z,4.08
2023-02-13T21:56:14.483Z,4.14
2023-02-13T21:58:42.381Z,4.07
2023-02-13T22:01:23.873Z,4.06
2023-02-13T22:03:52.611Z,4.01
2023-02-13T22:06:20.969Z,4.03
2023-02-13T22:08:47.779Z,4.16
2023-02-13T22:11:19.839Z,4.07
2023-02-13T22:13:46.466Z,4.01
2023-02-13T22:16:15.074Z,3.98
2023-02-13T22:18:43.414Z,4.04
2023-02-13T22:21:13.596Z,3.97
2023-02-13T22:23:41.313Z,3.92
2023-02-13T22:26:14.339Z,3.93
2023-02-13T22:28:43.368Z,3.89
2023-02-13T22:31:11.115Z,3.88
2023-02-13T22:33:37.830Z,3.87
2023-02-13T22:36:08.044Z,3.88
2023-02-13T22:38:39.038Z,3.86
2023-02-13T22:41:13.645Z,3.82
2023-02-13T22:43:41.260Z,3.80
2023-02-13T22:46:12.017Z,3.89
2023-02-13T22:48:39.884Z,3.83
2023-02-13T22:51:09.321Z,3.83
2023-02-13T22:53:36.830Z,3.83
2023-02-13T22:56:05.478Z,3.81
2023-02-13T22:58:32.085Z,3.77
2023-02-13T23:00:59.441Z,3.76
2023-02-13T23:03:26.490Z,3.73
2023-02-13T23:05:53.392Z,3.84
2023-02-13T23:08:20.093Z,3.76
2023-02-13T23:11:06.831Z,3.78
2023-02-13T23:13:33.456Z,3.73
2023-02-13T23:16:00.175Z,3.79
2023-02-13T23:18:26.825Z,3.74
2023-02-13T23:20:53.445Z,3.68
2023-02-13T23:23:22.346Z,3.76
2023-02-13T23:25:51.823Z,3.70
2023-02-13T23:28:18.583Z,3.67
2023-02-13T23:30:48.437Z,3.66
2023-02-13T23:33:15.144Z,3.65
2023-02-13T23:35:41.774Z,3.75
2023-02-13T23:38:08.513Z,3.68
2023-02-13T23:40:35.117Z,3.62
2023-02-13T23:43:01.769Z,3.61
2023-02-13T23:45:31.213Z,3.61
2023-02-13T23:47:57.793Z,3.63
2023-02-13T23:50:24.435Z,3.62
2023-02-13T23:52:51.184Z,3.56
2023-02-13T23:55:17.896Z,3.67
2023-02-13T23:57:44.512Z,3.61
